sensor_id;sensor_type;location;lat;lon;timestamp;temperature;humidity
14409;DHT22;7289;50.706;4.992;2023-08-07T00:00:16;12.70;99.90
14409;DHT22;7289;50.706;4.992;2023-08-07T00:02:44;12.80;99.90
14409;DHT22;7289;50.706;4.992;2023-08-07T00:05:13;12.80;99.90
14409;DHT22;7289;50.706;4.992;2023-08-07T00:07:43;12.80;99.90
14409;DHT22;7289;50.706;4.992;2023-08-07T00:10:12;12.80;99.90
14409;DHT22;7289;50.706;4.992;2023-08-07T00:12:41;12.80;99.90
14409;DHT22;7289;50.706;4.992;2023-08-07T00:15:11;12.80;99.90
14409;DHT22;7289;50.706;4.992;2023-08-07T00:17:40;12.80;99.90
14409;DHT22;7289;50.706;4.992;2023-08-07T00:20:09;12.70;99.90
14409;DHT22;7289;50.706;4.992;2023-08-07T00:22:38;12.70;99.90
14409;DHT22;7289;50.706;4.992;2023-08-07T00:25:07;12.70;99.90
14409;DHT22;7289;50.706;4.992;2023-08-07T00:27:35;12.60;99.90
14409;DHT22;7289;50.706;4.992;2023-08-07T00:30:04;12.50;99.90
14409;DHT22;7289;50.706;4.992;2023-08-07T00:32:34;12.60;99.90
14409;DHT22;7289;50.706;4.992;2023-08-07T00:35:03;12.60;99.90
14409;DHT22;7289;50.706;4.992;2023-08-07T00:37:32;12.60;99.90
14409;DHT22;7289;50.706;4.992;2023-08-07T00:40:02;12.60;99.90
14409;DHT22;7289;50.706;4.992;2023-08-07T00:42:31;12.60;99.90
14409;DHT22;7289;50.706;4.992;2023-08-07T00:45:00;12.60;99.90
14409;DHT22;7289;50.706;4.992;2023-08-07T00:47:29;12.60;99.90
14409;DHT22;7289;50.706;4.992;2023-08-07T00:50:00;12.70;99.90
14409;DHT22;7289;50.706;4.992;2023-08-07T00:52:29;12.60;99.90
14409;DHT22;7289;50.706;4.992;2023-08-07T00:54:58;12.60;99.90
14409;DHT22;7289;50.706;4.992;2023-08-07T00:57:27;12.60;99.90
14409;DHT22;7289;50.706;4.992;2023-08-07T00:59:56;12.60;99.90
14409;DHT22;7289;50.706;4.992;2023-08-07T01:02:26;12.60;99.90
14409;DHT22;7289;50.706;4.992;2023-08-07T01:04:55;12.50;99.90
14409;DHT22;7289;50.706;4.992;2023-08-07T01:07:24;12.50;99.90
14409;DHT22;7289;50.706;4.992;2023-08-07T01:09:53;12.40;99.90
14409;DHT22;7289;50.706;4.992;2023-08-07T01:12:29;12.40;99.90
14409;DHT22;7289;50.706;4.992;2023-08-07T01:15:03;12.30;99.90
14409;DHT22;7289;50.706;4.992;2023-08-07T01:17:35;12.30;99.90
14409;DHT22;7289;50.706;4.992;2023-08-07T01:20:05;12.30;99.90
14409;DHT22;7289;50.706;4.992;2023-08-07T01:22:35;12.30;99.90
14409;DHT22;7289;50.706;4.992;2023-08-07T01:25:04;12.30;99.90
14409;DHT22;7289;50.706;4.992;2023-08-07T01:27:36;12.30;99.90
14409;DHT22;7289;50.706;4.992;2023-08-07T01:30:12;12.20;99.90
14409;DHT22;7289;50.706;4.992;2023-08-07T01:32:50;12.20;99.90
14409;DHT22;7289;50.706;4.992;2023-08-07T01:35:25;12.20;99.90
14409;DHT22;7289;50.706;4.992;2023-08-07T01:37:59;12.30;99.90
14409;DHT22;7289;50.706;4.992;2023-08-07T01:40:28;12.30;99.90
14409;DHT22;7289;50.706;4.992;2023-08-07T01:42:57;12.30;99.90
14409;DHT22;7289;50.706;4.992;2023-08-07T01:45:27;12.30;99.90
14409;DHT22;7289;50.706;4.992;2023-08-07T01:47:56;12.30;99.90
14409;DHT22;7289;50.706;4.992;2023-08-07T01:50:25;12.30;99.90
14409;DHT22;7289;50.706;4.992;2023-08-07T01:52:53;12.40;99.90
14409;DHT22;7289;50.706;4.992;2023-08-07T01:55:24;12.40;99.90
14409;DHT22;7289;50.706;4.992;2023-08-07T01:57:53;12.40;99.90
14409;DHT22;7289;50.706;4.992;2023-08-07T02:00:21;12.40;99.90
14409;DHT22;7289;50.706;4.992;2023-08-07T02:02:50;12.40;99.90
14409;DHT22;7289;50.706;4.992;2023-08-07T02:05:18;12.40;99.90
14409;DHT22;7289;50.706;4.992;2023-08-07T02:07:47;12.40;99.90
14409;DHT22;7289;50.706;4.992;2023-08-07T02:10:15;12.40;99.90
14409;DHT22;7289;50.706;4.992;2023-08-07T02:12:45;12.30;99.90
14409;DHT22;7289;50.706;4.992;2023-08-07T02:15:13;12.30;99.90
14409;DHT22;7289;50.706;4.992;2023-08-07T02:17:42;12.30;99.90
14409;DHT22;7289;50.706;4.992;2023-08-07T02:20:11;12.30;99.90
14409;DHT22;7289;50.706;4.992;2023-08-07T02:22:39;12.30;99.90
14409;DHT22;7289;50.706;4.992;2023-08-07T02:25:08;12.30;99.90
14409;DHT22;7289;50.706;4.992;2023-08-07T02:27:39;12.20;99.90
14409;DHT22;7289;50.706;4.992;2023-08-07T02:30:09;12.20;99.90
14409;DHT22;7289;50.706;4.992;2023-08-07T02:32:38;12.20;99.90
14409;DHT22;7289;50.706;4.992;2023-08-07T02:35:08;12.20;99.90
14409;DHT22;7289;50.706;4.992;2023-08-07T02:37:37;12.20;99.90
14409;DHT22;7289;50.706;4.992;2023-08-07T02:40:06;12.20;99.90
14409;DHT22;7289;50.706;4.992;2023-08-07T02:42:35;12.20;99.90
14409;DHT22;7289;50.706;4.992;2023-08-07T02:45:04;12.20;99.90
14409;DHT22;7289;50.706;4.992;2023-08-07T02:47:34;12.20;99.90
14409;DHT22;7289;50.706;4.992;2023-08-07T02:50:04;12.20;99.90
14409;DHT22;7289;50.706;4.992;2023-08-07T02:52:32;12.00;99.90
14409;DHT22;7289;50.706;4.992;2023-08-07T02:55:01;12.10;99.90
14409;DHT22;7289;50.706;4.992;2023-08-07T02:57:29;12.10;99.90
14409;DHT22;7289;50.706;4.992;2023-08-07T02:59:58;12.10;99.90
14409;DHT22;7289;50.706;4.992;2023-08-07T03:02:26;12.10;99.90
14409;DHT22;7289;50.706;4.992;2023-08-07T03:04:57;12.00;99.90
14409;DHT22;7289;50.706;4.992;2023-08-07T03:07:25;12.00;99.90
14409;DHT22;7289;50.706;4.992;2023-08-07T03:09:54;12.00;99.90
14409;DHT22;7289;50.706;4.992;2023-08-07T03:12:22;12.00;99.90
14409;DHT22;7289;50.706;4.992;2023-08-07T03:14:51;12.00;99.90
14409;DHT22;7289;50.706;4.992;2023-08-07T03:17:20;12.00;99.90
14409;DHT22;7289;50.706;4.992;2023-08-07T03:19:48;12.00;99.90
14409;DHT22;7289;50.706;4.992;2023-08-07T03:22:18;12.00;99.90
14409;DHT22;7289;50.706;4.992;2023-08-07T03:24:47;12.00;99.90
14409;DHT22;7289;50.706;4.992;2023-08-07T03:27:16;12.00;99.90
14409;DHT22;7289;50.706;4.992;2023-08-07T03:29:44;12.00;99.90
14409;DHT22;7289;50.706;4.992;2023-08-07T03:32:14;12.00;99.90
14409;DHT22;7289;50.706;4.992;2023-08-07T03:34:42;12.10;99.90
14409;DHT22;7289;50.706;4.992;2023-08-07T03:37:12;12.00;99.90
14409;DHT22;7289;50.706;4.992;2023-08-07T03:39:41;12.00;99.90
14409;DHT22;7289;50.706;4.992;2023-08-07T03:42:15;12.00;99.90
14409;DHT22;7289;50.706;4.992;2023-08-07T03:44:46;12.00;99.90
14409;DHT22;7289;50.706;4.992;2023-08-07T03:47:14;12.00;99.90
14409;DHT22;7289;50.706;4.992;2023-08-07T03:49:43;12.00;99.90
14409;DHT22;7289;50.706;4.992;2023-08-07T03:52:11;12.00;99.90
14409;DHT22;7289;50.706;4.992;2023-08-07T03:54:41;12.00;99.90
14409;DHT22;7289;50.706;4.992;2023-08-07T03:57:10;12.00;99.90
14409;DHT22;7289;50.706;4.992;2023-08-07T03:59:38;12.10;99.90
14409;DHT22;7289;50.706;4.992;2023-08-07T04:02:07;12.10;99.90
14409;DHT22;7289;50.706;4.992;2023-08-07T04:04:35;12.10;99.90
14409;DHT22;7289;50.706;4.992;2023-08-07T04:07:04;12.00;99.90
14409;DHT22;7289;50.706;4.992;2023-08-07T04:09:32;12.00;99.90
14409;DHT22;7289;50.706;4.992;2023-08-07T04:12:03;12.00;99.90
14409;DHT22;7289;50.706;4.992;2023-08-07T04:14:31;12.00;99.90
14409;DHT22;7289;50.706;4.992;2023-08-07T04:17:00;12.00;99.90
14409;DHT22;7289;50.706;4.992;2023-08-07T04:19:29;12.00;99.90
14409;DHT22;7289;50.706;4.992;2023-08-07T04:21:57;12.00;99.90
14409;DHT22;7289;50.706;4.992;2023-08-07T04:24:26;12.10;99.90
14409;DHT22;7289;50.706;4.992;2023-08-07T04:26:54;12.10;99.90
14409;DHT22;7289;50.706;4.992;2023-08-07T04:29:25;12.20;99.90
14409;DHT22;7289;50.706;4.992;2023-08-07T04:31:54;12.30;99.90
14409;DHT22;7289;50.706;4.992;2023-08-07T04:34:22;12.20;99.90
14409;DHT22;7289;50.706;4.992;2023-08-07T04:36:50;12.30;99.90
14409;DHT22;7289;50.706;4.992;2023-08-07T04:39:21;12.40;99.90
14409;DHT22;7289;50.706;4.992;2023-08-07T04:41:49;12.50;99.90
14409;DHT22;7289;50.706;4.992;2023-08-07T04:44:18;12.60;99.90
14409;DHT22;7289;50.706;4.992;2023-08-07T04:46:48;12.60;99.90
14409;DHT22;7289;50.706;4.992;2023-08-07T04:49:16;12.60;99.90
14409;DHT22;7289;50.706;4.992;2023-08-07T04:51:45;12.70;99.90
14409;DHT22;7289;50.706;4.992;2023-08-07T04:54:13;12.70;99.90
14409;DHT22;7289;50.706;4.992;2023-08-07T04:56:41;12.70;99.90
14409;DHT22;7289;50.706;4.992;2023-08-07T04:59:11;12.80;99.90
14409;DHT22;7289;50.706;4.992;2023-08-07T05:01:40;12.80;99.90
14409;DHT22;7289;50.706;4.992;2023-08-07T05:04:10;12.90;99.90
14409;DHT22;7289;50.706;4.992;2023-08-07T05:06:38;12.90;99.90
14409;DHT22;7289;50.706;4.992;2023-08-07T05:09:07;12.90;99.90
14409;DHT22;7289;50.706;4.992;2023-08-07T05:11:36;13.00;99.90
14409;DHT22;7289;50.706;4.992;2023-08-07T05:14:04;13.00;99.90
14409;DHT22;7289;50.706;4.992;2023-08-07T05:16:32;13.10;99.90
14409;DHT22;7289;50.706;4.992;2023-08-07T05:19:01;13.20;99.90
14409;DHT22;7289;50.706;4.992;2023-08-07T05:21:31;13.30;99.90
14409;DHT22;7289;50.706;4.992;2023-08-07T05:23:59;13.40;99.90
14409;DHT22;7289;50.706;4.992;2023-08-07T05:26:28;13.50;99.90
14409;DHT22;7289;50.706;4.992;2023-08-07T05:28:57;13.60;99.90
14409;DHT22;7289;50.706;4.992;2023-08-07T05:31:26;13.80;99.90
14409;DHT22;7289;50.706;4.992;2023-08-07T05:33:55;13.90;99.90
14409;DHT22;7289;50.706;4.992;2023-08-07T05:36:24;13.90;99.90
14409;DHT22;7289;50.706;4.992;2023-08-07T05:38:54;13.90;99.90
14409;DHT22;7289;50.706;4.992;2023-08-07T05:41:22;14.00;99.90
14409;DHT22;7289;50.706;4.992;2023-08-07T05:43:50;14.00;99.90
14409;DHT22;7289;50.706;4.992;2023-08-07T05:46:19;14.00;99.90
14409;DHT22;7289;50.706;4.992;2023-08-07T05:48:47;13.90;99.90
14409;DHT22;7289;50.706;4.992;2023-08-07T05:51:16;13.90;99.90
14409;DHT22;7289;50.706;4.992;2023-08-07T05:53:44;13.90;99.90
14409;DHT22;7289;50.706;4.992;2023-08-07T05:56:14;13.80;99.90
14409;DHT22;7289;50.706;4.992;2023-08-07T05:58:44;13.90;99.90
14409;DHT22;7289;50.706;4.992;2023-08-07T06:01:12;13.80;99.90
14409;DHT22;7289;50.706;4.992;2023-08-07T06:03:41;13.70;99.90
14409;DHT22;7289;50.706;4.992;2023-08-07T06:06:10;13.60;99.90
14409;DHT22;7289;50.706;4.992;2023-08-07T06:08:38;13.50;99.90
14409;DHT22;7289;50.706;4.992;2023-08-07T06:11:07;13.60;99.90
14409;DHT22;7289;50.706;4.992;2023-08-07T06:13:37;13.60;99.90
14409;DHT22;7289;50.706;4.992;2023-08-07T06:16:05;13.70;99.90
14409;DHT22;7289;50.706;4.992;2023-08-07T06:18:34;13.80;99.90
14409;DHT22;7289;50.706;4.992;2023-08-07T06:21:03;14.00;99.90
14409;DHT22;7289;50.706;4.992;2023-08-07T06:23:34;14.10;99.90
14409;DHT22;7289;50.706;4.992;2023-08-07T06:26:02;14.20;99.90
14409;DHT22;7289;50.706;4.992;2023-08-07T06:28:32;14.30;99.90
14409;DHT22;7289;50.706;4.992;2023-08-07T06:31:04;14.50;99.90
14409;DHT22;7289;50.706;4.992;2023-08-07T06:33:33;14.70;99.90
14409;DHT22;7289;50.706;4.992;2023-08-07T06:36:01;14.90;99.90
14409;DHT22;7289;50.706;4.992;2023-08-07T06:38:30;14.90;99.90
14409;DHT22;7289;50.706;4.992;2023-08-07T06:40:58;14.90;99.90
14409;DHT22;7289;50.706;4.992;2023-08-07T06:43:27;15.00;99.90
14409;DHT22;7289;50.706;4.992;2023-08-07T06:45:56;15.10;99.90
14409;DHT22;7289;50.706;4.992;2023-08-07T06:48:26;15.10;99.90
14409;DHT22;7289;50.706;4.992;2023-08-07T06:50:55;15.10;99.90
14409;DHT22;7289;50.706;4.992;2023-08-07T06:53:23;15.30;99.90
14409;DHT22;7289;50.706;4.992;2023-08-07T06:55:52;15.40;99.90
14409;DHT22;7289;50.706;4.992;2023-08-07T06:58:24;15.40;99.90
14409;DHT22;7289;50.706;4.992;2023-08-07T07:00:52;15.50;99.90
14409;DHT22;7289;50.706;4.992;2023-08-07T07:03:20;15.60;99.90
14409;DHT22;7289;50.706;4.992;2023-08-07T07:05:50;15.60;99.90
14409;DHT22;7289;50.706;4.992;2023-08-07T07:08:19;15.70;99.90
14409;DHT22;7289;50.706;4.992;2023-08-07T07:10:47;15.90;99.90
14409;DHT22;7289;50.706;4.992;2023-08-07T07:13:16;16.00;99.90
14409;DHT22;7289;50.706;4.992;2023-08-07T07:15:44;16.00;99.90
14409;DHT22;7289;50.706;4.992;2023-08-07T07:18:13;16.00;99.90
14409;DHT22;7289;50.706;4.992;2023-08-07T07:20:42;16.00;99.90
14409;DHT22;7289;50.706;4.992;2023-08-07T07:23:11;16.20;99.90
14409;DHT22;7289;50.706;4.992;2023-08-07T07:25:40;16.30;99.90
14409;DHT22;7289;50.706;4.992;2023-08-07T07:28:08;16.40;99.90
14409;DHT22;7289;50.706;4.992;2023-08-07T07:30:39;16.40;99.90
14409;DHT22;7289;50.706;4.992;2023-08-07T07:33:07;16.40;99.90
14409;DHT22;7289;50.706;4.992;2023-08-07T07:35:37;16.40;99.90
14409;DHT22;7289;50.706;4.992;2023-08-07T07:38:06;16.60;99.90
14409;DHT22;7289;50.706;4.992;2023-08-07T07:40:36;16.60;99.90
14409;DHT22;7289;50.706;4.992;2023-08-07T07:43:04;16.50;99.90
14409;DHT22;7289;50.706;4.992;2023-08-07T07:45:33;16.60;99.90
14409;DHT22;7289;50.706;4.992;2023-08-07T07:48:03;16.60;99.90
14409;DHT22;7289;50.706;4.992;2023-08-07T07:50:33;16.60;99.90
14409;DHT22;7289;50.706;4.992;2023-08-07T07:53:01;16.60;99.90
14409;DHT22;7289;50.706;4.992;2023-08-07T07:55:30;16.70;99.90
14409;DHT22;7289;50.706;4.992;2023-08-07T07:58:00;16.70;99.90
14409;DHT22;7289;50.706;4.992;2023-08-07T08:00:29;16.80;99.90
14409;DHT22;7289;50.706;4.992;2023-08-07T08:02:57;16.90;99.90
14409;DHT22;7289;50.706;4.992;2023-08-07T08:05:26;16.90;99.90
14409;DHT22;7289;50.706;4.992;2023-08-07T08:07:55;17.00;99.90
14409;DHT22;7289;50.706;4.992;2023-08-07T08:10:24;17.00;99.90
14409;DHT22;7289;50.706;4.992;2023-08-07T08:12:54;17.10;99.90
14409;DHT22;7289;50.706;4.992;2023-08-07T08:15:24;17.30;99.90
14409;DHT22;7289;50.706;4.992;2023-08-07T08:17:52;17.30;99.90
14409;DHT22;7289;50.706;4.992;2023-08-07T08:20:21;17.30;99.90
14409;DHT22;7289;50.706;4.992;2023-08-07T08:22:50;17.60;99.90
14409;DHT22;7289;50.706;4.992;2023-08-07T08:25:19;17.60;99.90
14409;DHT22;7289;50.706;4.992;2023-08-07T08:27:47;17.80;99.90
14409;DHT22;7289;50.706;4.992;2023-08-07T08:30:17;18.00;99.90
14409;DHT22;7289;50.706;4.992;2023-08-07T08:32:46;18.40;99.90
14409;DHT22;7289;50.706;4.992;2023-08-07T08:35:16;18.50;99.30
14409;DHT22;7289;50.706;4.992;2023-08-07T08:37:44;18.40;99.40
14409;DHT22;7289;50.706;4.992;2023-08-07T08:40:13;18.50;98.90
14409;DHT22;7289;50.706;4.992;2023-08-07T08:42:45;18.70;99.90
14409;DHT22;7289;50.706;4.992;2023-08-07T08:45:14;18.80;98.40
14409;DHT22;7289;50.706;4.992;2023-08-07T08:47:43;18.70;97.90
14409;DHT22;7289;50.706;4.992;2023-08-07T08:50:15;18.20;98.20
14409;DHT22;7289;50.706;4.992;2023-08-07T08:52:45;18.20;98.30
14409;DHT22;7289;50.706;4.992;2023-08-07T08:55:13;18.20;98.60
14409;DHT22;7289;50.706;4.992;2023-08-07T08:57:42;18.30;98.40
14409;DHT22;7289;50.706;4.992;2023-08-07T09:00:12;18.40;98.70
14409;DHT22;7289;50.706;4.992;2023-08-07T09:02:48;18.40;98.50
14409;DHT22;7289;50.706;4.992;2023-08-07T09:05:19;18.60;98.10
14409;DHT22;7289;50.706;4.992;2023-08-07T09:07:49;18.60;96.50
14409;DHT22;7289;50.706;4.992;2023-08-07T09:10:18;18.20;96.90
14409;DHT22;7289;50.706;4.992;2023-08-07T09:12:53;18.00;97.50
14409;DHT22;7289;50.706;4.992;2023-08-07T09:15:23;18.20;97.60
14409;DHT22;7289;50.706;4.992;2023-08-07T09:17:54;18.30;97.80
14409;DHT22;7289;50.706;4.992;2023-08-07T09:20:24;18.60;96.20
14409;DHT22;7289;50.706;4.992;2023-08-07T09:22:53;18.40;96.00
14409;DHT22;7289;50.706;4.992;2023-08-07T09:25:27;18.30;96.80
14409;DHT22;7289;50.706;4.992;2023-08-07T09:27:56;18.40;96.80
14409;DHT22;7289;50.706;4.992;2023-08-07T09:30:26;18.50;96.00
14409;DHT22;7289;50.706;4.992;2023-08-07T09:32:57;18.50;97.00
14409;DHT22;7289;50.706;4.992;2023-08-07T09:35:30;18.50;96.30
14409;DHT22;7289;50.706;4.992;2023-08-07T09:37:58;18.50;96.50
14409;DHT22;7289;50.706;4.992;2023-08-07T09:40:27;18.80;95.40
14409;DHT22;7289;50.706;4.992;2023-08-07T09:42:55;19.10;95.10
14409;DHT22;7289;50.706;4.992;2023-08-07T09:45:26;19.30;95.50
14409;DHT22;7289;50.706;4.992;2023-08-07T09:47:58;19.30;95.30
14409;DHT22;7289;50.706;4.992;2023-08-07T09:50:30;19.60;95.00
14409;DHT22;7289;50.706;4.992;2023-08-07T09:52:59;19.30;94.40
14409;DHT22;7289;50.706;4.992;2023-08-07T09:55:28;19.00;94.60
14409;DHT22;7289;50.706;4.992;2023-08-07T09:58:00;18.90;95.30
14409;DHT22;7289;50.706;4.992;2023-08-07T10:00:34;19.10;96.10
14409;DHT22;7289;50.706;4.992;2023-08-07T10:03:03;19.40;94.60
14409;DHT22;7289;50.706;4.992;2023-08-07T10:05:34;19.50;93.70
14409;DHT22;7289;50.706;4.992;2023-08-07T10:08:03;19.30;93.50
14409;DHT22;7289;50.706;4.992;2023-08-07T10:10:32;19.30;94.10
14409;DHT22;7289;50.706;4.992;2023-08-07T10:13:01;19.20;94.10
14409;DHT22;7289;50.706;4.992;2023-08-07T10:15:32;19.30;95.20
14409;DHT22;7289;50.706;4.992;2023-08-07T10:18:02;19.30;94.70
14409;DHT22;7289;50.706;4.992;2023-08-07T10:20:32;19.10;93.80
14409;DHT22;7289;50.706;4.992;2023-08-07T10:23:06;19.00;94.60
14409;DHT22;7289;50.706;4.992;2023-08-07T10:25:39;19.10;94.50
14409;DHT22;7289;50.706;4.992;2023-08-07T10:28:10;19.20;95.10
14409;DHT22;7289;50.706;4.992;2023-08-07T10:30:41;19.20;95.70
14409;DHT22;7289;50.706;4.992;2023-08-07T10:33:12;19.30;95.10
14409;DHT22;7289;50.706;4.992;2023-08-07T10:35:45;19.30;95.50
14409;DHT22;7289;50.706;4.992;2023-08-07T10:38:19;19.30;94.40
14409;DHT22;7289;50.706;4.992;2023-08-07T10:41:06;19.50;94.30
14409;DHT22;7289;50.706;4.992;2023-08-07T10:43:40;19.90;93.10
14409;DHT22;7289;50.706;4.992;2023-08-07T10:46:11;20.00;92.10
14409;DHT22;7289;50.706;4.992;2023-08-07T10:48:43;20.00;92.30
14409;DHT22;7289;50.706;4.992;2023-08-07T10:51:14;19.70;92.30
14409;DHT22;7289;50.706;4.992;2023-08-07T10:53:46;19.50;92.80
14409;DHT22;7289;50.706;4.992;2023-08-07T10:56:17;19.30;93.40
14409;DHT22;7289;50.706;4.992;2023-08-07T10:58:51;19.20;94.10
14409;DHT22;7289;50.706;4.992;2023-08-07T11:01:21;19.30;93.90
14409;DHT22;7289;50.706;4.992;2023-08-07T11:03:51;19.40;93.60
14409;DHT22;7289;50.706;4.992;2023-08-07T11:06:23;19.60;94.00
14409;DHT22;7289;50.706;4.992;2023-08-07T11:08:54;20.10;93.20
14409;DHT22;7289;50.706;4.992;2023-08-07T11:11:23;20.30;91.50
14409;DHT22;7289;50.706;4.992;2023-08-07T11:13:52;20.40;92.50
14409;DHT22;7289;50.706;4.992;2023-08-07T11:16:21;20.40;92.00
14409;DHT22;7289;50.706;4.992;2023-08-07T11:18:49;20.40;92.90
14409;DHT22;7289;50.706;4.992;2023-08-07T11:21:18;20.70;92.60
14409;DHT22;7289;50.706;4.992;2023-08-07T11:23:47;20.60;90.50
14409;DHT22;7289;50.706;4.992;2023-08-07T11:26:18;20.40;91.20
14409;DHT22;7289;50.706;4.992;2023-08-07T11:28:49;20.20;91.60
14409;DHT22;7289;50.706;4.992;2023-08-07T11:31:18;20.40;90.70
14409;DHT22;7289;50.706;4.992;2023-08-07T11:33:47;20.40;91.40
14409;DHT22;7289;50.706;4.992;2023-08-07T11:36:18;20.70;91.60
14409;DHT22;7289;50.706;4.992;2023-08-07T11:38:46;21.00;92.20
14409;DHT22;7289;50.706;4.992;2023-08-07T11:41:16;21.60;91.00
14409;DHT22;7289;50.706;4.992;2023-08-07T11:43:47;21.80;90.40
14409;DHT22;7289;50.706;4.992;2023-08-07T11:46:16;21.70;88.90
14409;DHT22;7289;50.706;4.992;2023-08-07T11:48:45;21.20;90.10
14409;DHT22;7289;50.706;4.992;2023-08-07T11:51:13;20.70;90.20
14409;DHT22;7289;50.706;4.992;2023-08-07T11:53:42;20.30;90.80
14409;DHT22;7289;50.706;4.992;2023-08-07T11:56:11;20.40;91.30
14409;DHT22;7289;50.706;4.992;2023-08-07T11:58:43;20.40;91.80
14409;DHT22;7289;50.706;4.992;2023-08-07T12:01:16;20.50;92.40
14409;DHT22;7289;50.706;4.992;2023-08-07T12:03:52;20.60;90.60
14409;DHT22;7289;50.706;4.992;2023-08-07T12:06:22;20.40;88.80
14409;DHT22;7289;50.706;4.992;2023-08-07T12:08:53;20.30;89.60
14409;DHT22;7289;50.706;4.992;2023-08-07T12:11:22;20.60;89.50
14409;DHT22;7289;50.706;4.992;2023-08-07T12:13:51;20.70;89.40
14409;DHT22;7289;50.706;4.992;2023-08-07T12:16:21;20.60;90.20
14409;DHT22;7289;50.706;4.992;2023-08-07T12:18:51;20.50;91.00
14409;DHT22;7289;50.706;4.992;2023-08-07T12:21:21;20.70;90.20
14409;DHT22;7289;50.706;4.992;2023-08-07T12:23:55;21.00;90.70
14409;DHT22;7289;50.706;4.992;2023-08-07T12:26:24;21.30;89.60
14409;DHT22;7289;50.706;4.992;2023-08-07T12:28:52;21.70;90.30
14409;DHT22;7289;50.706;4.992;2023-08-07T12:31:22;21.80;86.60
14409;DHT22;7289;50.706;4.992;2023-08-07T12:33:51;21.70;89.60
14409;DHT22;7289;50.706;4.992;2023-08-07T12:36:21;21.90;89.90
14409;DHT22;7289;50.706;4.992;2023-08-07T12:38:49;22.10;88.10
14409;DHT22;7289;50.706;4.992;2023-08-07T12:41:18;22.20;88.80
14409;DHT22;7289;50.706;4.992;2023-08-07T12:43:49;22.30;89.60
14409;DHT22;7289;50.706;4.992;2023-08-07T12:46:18;22.80;89.50
14409;DHT22;7289;50.706;4.992;2023-08-07T12:48:51;23.00;86.50
14409;DHT22;7289;50.706;4.992;2023-08-07T12:51:19;22.70;86.40
14409;DHT22;7289;50.706;4.992;2023-08-07T12:53:48;22.50;87.00
14409;DHT22;7289;50.706;4.992;2023-08-07T12:56:18;22.60;87.60
14409;DHT22;7289;50.706;4.992;2023-08-07T12:58:46;22.80;90.10
14409;DHT22;7289;50.706;4.992;2023-08-07T13:01:15;23.20;90.10
14409;DHT22;7289;50.706;4.992;2023-08-07T13:03:44;23.00;87.70
14409;DHT22;7289;50.706;4.992;2023-08-07T13:06:13;23.10;86.60
14409;DHT22;7289;50.706;4.992;2023-08-07T13:08:42;22.80;86.60
14409;DHT22;7289;50.706;4.992;2023-08-07T13:11:13;22.20;86.50
14409;DHT22;7289;50.706;4.992;2023-08-07T13:13:41;22.00;86.80
14409;DHT22;7289;50.706;4.992;2023-08-07T13:16:10;21.90;88.80
14409;DHT22;7289;50.706;4.992;2023-08-07T13:18:39;21.70;87.90
14409;DHT22;7289;50.706;4.992;2023-08-07T13:21:07;21.90;89.10
14409;DHT22;7289;50.706;4.992;2023-08-07T13:23:37;21.80;88.30
14409;DHT22;7289;50.706;4.992;2023-08-07T13:26:05;21.60;89.20
14409;DHT22;7289;50.706;4.992;2023-08-07T13:28:34;21.20;88.90
14409;DHT22;7289;50.706;4.992;2023-08-07T13:31:02;21.10;90.30
14409;DHT22;7289;50.706;4.992;2023-08-07T13:33:31;21.40;90.60
14409;DHT22;7289;50.706;4.992;2023-08-07T13:35:59;21.50;90.20
14409;DHT22;7289;50.706;4.992;2023-08-07T13:38:28;21.70;90.00
14409;DHT22;7289;50.706;4.992;2023-08-07T13:40:58;21.80;88.50
14409;DHT22;7289;50.706;4.992;2023-08-07T13:43:27;21.50;90.10
14409;DHT22;7289;50.706;4.992;2023-08-07T13:45:55;21.70;90.20
14409;DHT22;7289;50.706;4.992;2023-08-07T13:48:23;21.80;90.40
14409;DHT22;7289;50.706;4.992;2023-08-07T13:50:53;21.90;89.10
14409;DHT22;7289;50.706;4.992;2023-08-07T13:53:22;21.80;89.90
14409;DHT22;7289;50.706;4.992;2023-08-07T13:55:57;21.80;90.10
14409;DHT22;7289;50.706;4.992;2023-08-07T13:58:26;21.90;91.20
14409;DHT22;7289;50.706;4.992;2023-08-07T14:00:55;21.70;89.80
14409;DHT22;7289;50.706;4.992;2023-08-07T14:03:24;21.90;91.10
14409;DHT22;7289;50.706;4.992;2023-08-07T14:05:53;21.80;91.00
14409;DHT22;7289;50.706;4.992;2023-08-07T14:08:21;21.80;90.20
14409;DHT22;7289;50.706;4.992;2023-08-07T14:10:50;21.80;89.90
14409;DHT22;7289;50.706;4.992;2023-08-07T14:13:20;21.80;90.10
14409;DHT22;7289;50.706;4.992;2023-08-07T14:15:48;21.90;91.60
14409;DHT22;7289;50.706;4.992;2023-08-07T14:18:16;22.10;90.70
14409;DHT22;7289;50.706;4.992;2023-08-07T14:20:45;22.20;90.00
14409;DHT22;7289;50.706;4.992;2023-08-07T14:23:27;22.50;89.30
14409;DHT22;7289;50.706;4.992;2023-08-07T14:26:00;22.70;88.10
14409;DHT22;7289;50.706;4.992;2023-08-07T14:28:30;22.70;89.20
14409;DHT22;7289;50.706;4.992;2023-08-07T14:30:58;22.60;90.50
14409;DHT22;7289;50.706;4.992;2023-08-07T14:33:28;22.70;89.20
14409;DHT22;7289;50.706;4.992;2023-08-07T14:35:57;22.80;88.40
14409;DHT22;7289;50.706;4.992;2023-08-07T14:38:25;22.70;88.00
14409;DHT22;7289;50.706;4.992;2023-08-07T14:40:54;22.70;89.60
14409;DHT22;7289;50.706;4.992;2023-08-07T14:43:23;22.80;89.60
14409;DHT22;7289;50.706;4.992;2023-08-07T14:45:53;22.80;89.30
14409;DHT22;7289;50.706;4.992;2023-08-07T14:48:22;22.70;87.50
14409;DHT22;7289;50.706;4.992;2023-08-07T14:50:50;22.90;89.80
14409;DHT22;7289;50.706;4.992;2023-08-07T14:53:19;23.00;87.00
14409;DHT22;7289;50.706;4.992;2023-08-07T14:55:47;22.90;88.50
14409;DHT22;7289;50.706;4.992;2023-08-07T14:58:16;22.70;87.50
14409;DHT22;7289;50.706;4.992;2023-08-07T15:00:44;22.60;89.30
14409;DHT22;7289;50.706;4.992;2023-08-07T15:03:14;22.40;86.10
14409;DHT22;7289;50.706;4.992;2023-08-07T15:05:43;22.00;86.90
14409;DHT22;7289;50.706;4.992;2023-08-07T15:08:11;21.90;87.50
14409;DHT22;7289;50.706;4.992;2023-08-07T15:10:40;21.80;88.50
14409;DHT22;7289;50.706;4.992;2023-08-07T15:13:08;21.70;87.80
14409;DHT22;7289;50.706;4.992;2023-08-07T15:15:37;21.40;87.60
14409;DHT22;7289;50.706;4.992;2023-08-07T15:18:05;21.30;88.80
14409;DHT22;7289;50.706;4.992;2023-08-07T15:20:35;21.40;89.70
14409;DHT22;7289;50.706;4.992;2023-08-07T15:23:06;21.50;90.10
14409;DHT22;7289;50.706;4.992;2023-08-07T15:25:36;21.60;90.00
14409;DHT22;7289;50.706;4.992;2023-08-07T15:28:05;21.70;89.50
14409;DHT22;7289;50.706;4.992;2023-08-07T15:30:34;21.80;89.20
14409;DHT22;7289;50.706;4.992;2023-08-07T15:33:03;21.90;90.10
14409;DHT22;7289;50.706;4.992;2023-08-07T15:35:32;21.80;86.00
14409;DHT22;7289;50.706;4.992;2023-08-07T15:38:03;21.50;87.40
14409;DHT22;7289;50.706;4.992;2023-08-07T15:40:31;21.30;88.80
14409;DHT22;7289;50.706;4.992;2023-08-07T15:43:00;21.40;90.90
14409;DHT22;7289;50.706;4.992;2023-08-07T15:45:28;21.30;90.60
14409;DHT22;7289;50.706;4.992;2023-08-07T15:47:56;21.20;90.90
14409;DHT22;7289;50.706;4.992;2023-08-07T15:50:25;21.10;90.60
14409;DHT22;7289;50.706;4.992;2023-08-07T15:52:54;21.00;91.10
14409;DHT22;7289;50.706;4.992;2023-08-07T15:55:25;20.90;90.20
14409;DHT22;7289;50.706;4.992;2023-08-07T15:57:53;21.00;90.60